Time;durP1;ratioP1;P1;durP2;ratioP2;P2;SDS_P1;SDS_P2;PMS_P1;PMS_P2;Temp;Humidity;BMP_temperature;BMP_pressure;BME280_temperature;BME280_humidity;BME280_pressure;Samples;Min_cycle;Max_cycle;Signal;HPM_P1;HPM_P2
2023/09/04 00:01:00;;;;;;;2.73;1.40;;;;;;;;;;5093469;28;20035;-64
2023/09/04 00:03:27;;;;;;;1.73;1.17;;;;;;;;;;5093553;28;20081;-66
2023/09/04 00:05:54;;;;;;;1.70;0.83;;;;;;;;;;5108382;28;20031;-64
2023/09/04 00:08:21;;;;;;;1.90;1.23;;;;;;;;;;5107874;28;20377;-64
2023/09/04 00:10:48;;;;;;;4.30;2.17;;;;;;;;;;5108246;28;20084;-64
2023/09/04 00:13:14;;;;;;;0.80;0.60;;;;;;;;;;5108993;28;20044;-64
2023/09/04 00:15:41;;;;;;;2.43;1.47;;;;;;;;;;5093232;28;20028;-64
2023/09/04 00:18:08;;;;;;;2.50;1.07;;;;;;;;;;5093171;28;20067;-63
2023/09/04 00:20:35;;;;;;;6.03;1.30;;;;;;;;;;5093201;28;20482;-64
2023/09/04 00:23:02;;;;;;;3.50;2.03;;;;;;;;;;5093136;28;20040;-64
2023/09/04 00:25:28;;;;;;;1.83;1.27;;;;;;;;;;5092697;28;20432;-64
2023/09/04 00:27:57;;;;;;;1.47;1.00;;;;;;;;;;5108341;28;20351;-64
2023/09/04 00:30:24;;;;;;;1.13;0.87;;;;;;;;;;5108133;28;20042;-64
2023/09/04 00:32:50;;;;;;;1.07;0.93;;;;;;;;;;5107950;28;20161;-64
2023/09/04 00:35:17;;;;;;;2.93;1.00;;;;;;;;;;5109331;28;20423;-63
2023/09/04 00:37:44;;;;;;;1.67;1.20;;;;;;;;;;5110103;28;20121;-64
2023/09/04 00:40:11;;;;;;;1.87;1.37;;;;;;;;;;5112852;28;20082;-64
2023/09/04 00:42:37;;;;;;;1.10;1.00;;;;;;;;;;5113197;28;20413;-64
2023/09/04 00:45:05;;;;;;;1.13;0.73;;;;;;;;;;5113293;28;20382;-65
2023/09/04 00:47:32;;;;;;;0.83;0.80;;;;;;;;;;5111355;28;20088;-65
2023/09/04 00:49:59;;;;;;;1.37;0.90;;;;;;;;;;5106089;28;20406;-65
2023/09/04 00:52:26;;;;;;;1.57;0.77;;;;;;;;;;5087616;28;20111;-64
2023/09/04 00:54:53;;;;;;;2.10;1.17;;;;;;;;;;5087342;28;20385;-64
2023/09/04 00:57:20;;;;;;;1.73;1.10;;;;;;;;;;5088565;28;20032;-64
2023/09/04 00:59:47;;;;;;;2.30;1.20;;;;;;;;;;5092637;28;20414;-64
2023/09/04 01:02:14;;;;;;;0.93;0.87;;;;;;;;;;5094888;28;20075;-64
2023/09/04 01:04:41;;;;;;;2.43;0.90;;;;;;;;;;5113031;28;20042;-64
2023/09/04 01:07:08;;;;;;;1.13;0.73;;;;;;;;;;5111334;28;20028;-64
2023/09/04 01:09:35;;;;;;;2.80;1.27;;;;;;;;;;5111277;28;20036;-64
2023/09/04 01:12:23;;;;;;;0.73;0.50;;;;;;;;;;5107004;28;20042;-64
2023/09/04 01:14:52;;;;;;;0.90;0.70;;;;;;;;;;5067414;28;20062;-64
2023/09/04 01:17:19;;;;;;;0.73;0.63;;;;;;;;;;5067197;28;20120;-64
2023/09/04 01:19:46;;;;;;;2.50;1.00;;;;;;;;;;5068652;28;20477;-66
2023/09/04 01:22:13;;;;;;;0.80;0.60;;;;;;;;;;5074486;28;20135;-64
2023/09/04 01:24:42;;;;;;;0.80;0.67;;;;;;;;;;5087554;28;20023;-64
2023/09/04 01:27:16;;;;;;;1.00;0.60;;;;;;;;;;5116982;28;20114;-64
2023/09/04 01:29:50;;;;;;;0.50;0.50;;;;;;;;;;5116926;28;20042;-64
2023/09/04 01:32:36;;;;;;;0.60;0.50;;;;;;;;;;5114444;28;20032;-64
2023/09/04 01:35:03;;;;;;;;;;;;;;;;;;5112366;28;20343;-65
2023/09/04 01:37:30;;;;;;;1.37;0.87;;;;;;;;;;5098472;28;19923;-64
2023/09/04 01:39:57;;;;;;;0.37;0.37;;;;;;;;;;5091143;28;20032;-64
2023/09/04 01:42:24;;;;;;;2.33;1.13;;;;;;;;;;5093501;28;20016;-65
2023/09/04 01:44:51;;;;;;;4.23;1.23;;;;;;;;;;5097028;28;20085;-64
2023/09/04 01:47:17;;;;;;;1.40;1.00;;;;;;;;;;5095847;28;20024;-64
2023/09/04 01:49:44;;;;;;;0.87;0.50;;;;;;;;;;5100717;28;20426;-65
2023/09/04 01:52:11;;;;;;;1.10;0.80;;;;;;;;;;5095913;28;20039;-64
2023/09/04 01:54:38;;;;;;;1.63;1.03;;;;;;;;;;5093369;28;20032;-64
2023/09/04 01:57:05;;;;;;;1.07;0.77;;;;;;;;;;5090981;28;20549;-64
2023/09/04 01:59:33;;;;;;;0.40;0.40;;;;;;;;;;5090957;28;20482;-64
2023/09/04 02:01:59;;;;;;;0.90;0.77;;;;;;;;;;5105228;28;20049;-64
2023/09/04 02:04:26;;;;;;;0.77;0.73;;;;;;;;;;5113091;28;20019;-64
2023/09/04 02:06:53;;;;;;;3.77;1.10;;;;;;;;;;5116219;28;20032;-64
2023/09/04 02:09:19;;;;;;;0.67;0.60;;;;;;;;;;5116093;28;20070;-64
2023/09/04 02:11:46;;;;;;;1.13;0.77;;;;;;;;;;5103346;28;20059;-64
2023/09/04 02:14:13;;;;;;;0.60;0.50;;;;;;;;;;5095707;28;20387;-64
2023/09/04 02:16:39;;;;;;;0.97;0.70;;;;;;;;;;5093184;28;20036;-65
2023/09/04 02:19:06;;;;;;;0.90;0.60;;;;;;;;;;5090473;28;20035;-64
2023/09/04 02:21:32;;;;;;;0.60;0.50;;;;;;;;;;5090322;28;20047;-64
2023/09/04 02:23:59;;;;;;;1.97;1.07;;;;;;;;;;5104164;28;20037;-64
2023/09/04 02:26:26;;;;;;;1.97;0.87;;;;;;;;;;5112069;28;20107;-64
2023/09/04 02:28:52;;;;;;;1.67;0.90;;;;;;;;;;5113963;28;20027;-64
2023/09/04 02:31:19;;;;;;;1.10;0.70;;;;;;;;;;5111436;28;20036;-64
2023/09/04 02:33:46;;;;;;;2.77;1.20;;;;;;;;;;5093812;28;20051;-64
2023/09/04 02:36:13;;;;;;;1.23;0.90;;;;;;;;;;5095405;28;20035;-64
2023/09/04 02:38:41;;;;;;;1.20;0.83;;;;;;;;;;5093508;28;20028;-64
2023/09/04 02:41:07;;;;;;;1.10;0.87;;;;;;;;;;5089487;28;20020;-64
2023/09/04 02:43:34;;;;;;;1.47;0.90;;;;;;;;;;5108541;28;20368;-64
2023/09/04 02:46:01;;;;;;;3.80;0.80;;;;;;;;;;5105362;28;20516;-64
2023/09/04 02:48:27;;;;;;;12.90;1.00;;;;;;;;;;5090703;28;20107;-64
2023/09/04 02:51:00;;;;;;;1.60;1.03;;;;;;;;;;5094731;28;20024;-64
2023/09/04 02:53:27;;;;;;;2.73;1.07;;;;;;;;;;5110717;28;20482;-64
2023/09/04 02:55:54;;;;;;;1.80;1.07;;;;;;;;;;5091307;28;20024;-64
2023/09/04 02:58:24;;;;;;;1.40;1.07;;;;;;;;;;5101856;28;20111;-64
2023/09/04 03:00:51;;;;;;;6.83;1.27;;;;;;;;;;5105109;28;20035;-64
2023/09/04 03:03:21;;;;;;;1.17;0.80;;;;;;;;;;5109690;28;20027;-65
2023/09/04 03:05:47;;;;;;;1.50;0.93;;;;;;;;;;5109684;28;20482;-65
2023/09/04 03:08:14;;;;;;;3.50;1.60;;;;;;;;;;5109977;28;20059;-64
2023/09/04 03:10:41;;;;;;;7.90;2.63;;;;;;;;;;5100524;28;20108;-64
2023/09/04 03:13:07;;;;;;;2.37;1.73;;;;;;;;;;5099970;28;20027;-64
2023/09/04 03:15:34;;;;;;;2.37;1.63;;;;;;;;;;5115087;28;20023;-64
2023/09/04 03:18:02;;;;;;;1.83;1.23;;;;;;;;;;5114315;28;20099;-64
2023/09/04 03:20:28;;;;;;;3.80;1.83;;;;;;;;;;5115143;27;20027;-64
2023/09/04 03:22:55;;;;;;;1.07;0.80;;;;;;;;;;5111274;28;20363;-64
2023/09/04 03:25:22;;;;;;;1.17;1.00;;;;;;;;;;5094826;28;20125;-63
2023/09/04 03:27:48;;;;;;;3.90;1.47;;;;;;;;;;5089425;28;20024;-64
2023/09/04 03:30:17;;;;;;;3.23;1.70;;;;;;;;;;5090022;28;20111;-64
2023/09/04 03:32:44;;;;;;;1.57;1.13;;;;;;;;;;5089722;28;20111;-64
2023/09/04 03:35:12;;;;;;;2.37;1.43;;;;;;;;;;5092636;28;20030;-63
2023/09/04 03:37:39;;;;;;;3.77;1.50;;;;;;;;;;5094087;28;20486;-64
2023/09/04 03:40:25;;;;;;;1.10;1.00;;;;;;;;;;5104424;28;20055;-63
2023/09/04 03:42:51;;;;;;;5.83;1.13;;;;;;;;;;5113738;28;20031;-64
2023/09/04 03:45:18;;;;;;;3.20;1.43;;;;;;;;;;5111939;28;20146;-63
2023/09/04 03:47:47;;;;;;;4.37;1.27;;;;;;;;;;5109144;28;20034;-63
2023/09/04 03:50:14;;;;;;;2.27;1.20;;;;;;;;;;5097677;28;20040;-64
2023/09/04 03:52:41;;;;;;;9.93;1.90;;;;;;;;;;5088585;28;20032;-64
2023/09/04 03:55:09;;;;;;;1.33;0.97;;;;;;;;;;5090130;28;20027;-64
2023/09/04 03:57:36;;;;;;;1.57;1.23;;;;;;;;;;5092308;28;20070;-63
2023/09/04 04:00:14;;;;;;;1.83;1.30;;;;;;;;;;5093184;28;20024;-63
2023/09/04 04:02:41;;;;;;;3.70;1.87;;;;;;;;;;5106691;28;20012;-64
2023/09/04 04:05:07;;;;;;;1.87;1.17;;;;;;;;;;5113969;28;20374;-63
2023/09/04 04:07:34;;;;;;;1.63;1.10;;;;;;;;;;5109951;28;20386;-64
2023/09/04 04:10:01;;;;;;;3.23;0.97;;;;;;;;;;5107329;28;20028;-64
2023/09/04 04:12:28;;;;;;;3.47;0.97;;;;;;;;;;5108328;28;20024;-63
2023/09/04 04:14:57;;;;;;;1.23;0.80;;;;;;;;;;5108539;28;20118;-64
2023/09/04 04:17:26;;;;;;;0.77;0.67;;;;;;;;;;5095248;28;20115;-64
2023/09/04 04:19:53;;;;;;;0.70;0.60;;;;;;;;;;5093508;28;20024;-63
2023/09/04 04:22:20;;;;;;;4.57;1.43;;;;;;;;;;5093147;28;20021;-63
2023/09/04 04:24:50;;;;;;;1.40;0.87;;;;;;;;;;5093292;28;20031;-63
2023/09/04 04:27:17;;;;;;;1.93;1.30;;;;;;;;;;5092762;28;20463;-63
2023/09/04 04:29:44;;;;;;;1.43;1.13;;;;;;;;;;5105670;28;20024;-63
2023/09/04 04:32:11;;;;;;;2.00;1.10;;;;;;;;;;5108084;28;20066;-64
2023/09/04 04:34:38;;;;;;;25.37;1.37;;;;;;;;;;5108225;28;20108;-63
2023/09/04 04:37:05;;;;;;;1.77;1.07;;;;;;;;;;5108249;28;20027;-64
2023/09/04 04:39:31;;;;;;;2.10;1.33;;;;;;;;;;5097249;28;20035;-63
2023/09/04 04:41:58;;;;;;;2.03;0.80;;;;;;;;;;5092540;28;20409;-64
2023/09/04 04:44:24;;;;;;;2.37;1.10;;;;;;;;;;5093099;28;20476;-63
2023/09/04 04:46:51;;;;;;;1.40;0.93;;;;;;;;;;5092966;28;20055;-64
2023/09/04 04:49:20;;;;;;;7.37;1.67;;;;;;;;;;5092639;28;20036;-64
2023/09/04 04:51:47;;;;;;;2.17;1.00;;;;;;;;;;5105540;28;20034;-64
2023/09/04 04:54:14;;;;;;;0.47;0.40;;;;;;;;;;5108020;28;20035;-63
2023/09/04 04:56:40;;;;;;;2.10;1.20;;;;;;;;;;5107396;28;20024;-64
2023/09/04 04:59:08;;;;;;;1.90;1.30;;;;;;;;;;5107796;28;20023;-63
2023/09/04 05:01:35;;;;;;;1.40;1.03;;;;;;;;;;5096522;28;20501;-64
2023/09/04 05:04:02;;;;;;;0.83;0.63;;;;;;;;;;5092748;28;20424;-64
2023/09/04 05:06:28;;;;;;;2.87;1.07;;;;;;;;;;5092369;28;20020;-64
2023/09/04 05:08:55;;;;;;;1.07;0.63;;;;;;;;;;5092934;28;20374;-64
2023/09/04 05:11:21;;;;;;;1.73;1.17;;;;;;;;;;5102485;28;20043;-64
2023/09/04 05:13:48;;;;;;;2.03;1.20;;;;;;;;;;5110440;28;20039;-64
2023/09/04 05:16:15;;;;;;;1.23;0.93;;;;;;;;;;5107855;28;20037;-63
2023/09/04 05:18:41;;;;;;;1.47;0.87;;;;;;;;;;5107682;28;20024;-63
2023/09/04 05:21:08;;;;;;;3.47;1.20;;;;;;;;;;5107778;28;20031;-63
2023/09/04 05:23:35;;;;;;;1.20;0.97;;;;;;;;;;5095439;28;20060;-63
2023/09/04 05:26:02;;;;;;;2.20;1.30;;;;;;;;;;5092207;28;20016;-64
2023/09/04 05:28:29;;;;;;;7.00;1.30;;;;;;;;;;5092548;28;20024;-64
2023/09/04 05:31:02;;;;;;;1.43;0.97;;;;;;;;;;5091836;28;20028;-64
2023/09/04 05:33:29;;;;;;;4.77;1.23;;;;;;;;;;5092176;28;20097;-64
2023/09/04 05:35:56;;;;;;;2.03;1.37;;;;;;;;;;5104136;28;20088;-65
2023/09/04 05:38:23;;;;;;;3.17;1.20;;;;;;;;;;5107553;28;20569;-64
2023/09/04 05:40:57;;;;;;;2.70;1.53;;;;;;;;;;5107349;28;20072;-64
2023/09/04 05:43:24;;;;;;;1.65;0.95;;;;;;;;;;5107130;28;20061;-64
2023/09/04 05:45:51;;;;;;;1.70;1.07;;;;;;;;;;5091214;28;20095;-64
2023/09/04 05:48:18;;;;;;;1.67;0.90;;;;;;;;;;5111560;28;20038;-64
2023/09/04 05:50:44;;;;;;;0.97;0.73;;;;;;;;;;5112514;28;20042;-64
2023/09/04 05:53:11;;;;;;;2.47;1.27;;;;;;;;;;5112510;28;20027;-63
2023/09/04 05:55:38;;;;;;;1.03;0.87;;;;;;;;;;5099261;28;20036;-63
2023/09/04 05:58:04;;;;;;;1.37;1.03;;;;;;;;;;5090216;28;20116;-63
2023/09/04 06:00:31;;;;;;;1.60;1.10;;;;;;;;;;5086902;28;20073;-64
2023/09/04 06:02:59;;;;;;;1.03;0.70;;;;;;;;;;5087048;28;20024;-64
2023/09/04 06:05:26;;;;;;;0.97;0.87;;;;;;;;;;5097434;28;20481;-64
2023/09/04 06:07:52;;;;;;;1.00;0.67;;;;;;;;;;5111137;28;20053;-63
2023/09/04 06:10:19;;;;;;;0.70;0.70;;;;;;;;;;5116104;28;20077;-64
2023/09/04 06:12:46;;;;;;;1.17;0.80;;;;;;;;;;5116021;28;20024;-64
2023/09/04 06:15:12;;;;;;;1.07;0.83;;;;;;;;;;5103666;28;20028;-63
2023/09/04 06:17:39;;;;;;;1.90;1.20;;;;;;;;;;5095657;28;20030;-63
2023/09/04 06:20:06;;;;;;;1.43;0.90;;;;;;;;;;5094408;28;20073;-63
2023/09/04 06:22:33;;;;;;;1.23;0.80;;;;;;;;;;5090415;28;20020;-63
2023/09/04 06:24:59;;;;;;;1.53;1.10;;;;;;;;;;5099694;28;20059;-63
2023/09/04 06:27:26;;;;;;;1.63;0.90;;;;;;;;;;5110888;28;20055;-63
2023/09/04 06:29:52;;;;;;;4.40;0.97;;;;;;;;;;5111082;28;20386;-63
2023/09/04 06:32:19;;;;;;;1.53;1.20;;;;;;;;;;5115436;28;20016;-64
2023/09/04 06:34:46;;;;;;;3.13;1.57;;;;;;;;;;5115897;28;20077;-64
2023/09/04 06:37:12;;;;;;;1.80;0.90;;;;;;;;;;5105119;28;20069;-63
2023/09/04 06:39:39;;;;;;;1.80;0.97;;;;;;;;;;5095409;28;20020;-64
2023/09/04 06:42:06;;;;;;;2.00;1.10;;;;;;;;;;5093994;28;20102;-65
2023/09/04 06:44:32;;;;;;;1.07;0.70;;;;;;;;;;5090208;28;20052;-63
2023/09/04 06:46:59;;;;;;;3.93;1.10;;;;;;;;;;5089417;28;20540;-63
2023/09/04 06:49:26;;;;;;;1.37;1.00;;;;;;;;;;5103751;28;20042;-64
2023/09/04 06:51:53;;;;;;;6.43;0.90;;;;;;;;;;5110672;28;20398;-63
2023/09/04 06:54:20;;;;;;;1.60;0.97;;;;;;;;;;5115247;28;20028;-64
2023/09/04 06:56:46;;;;;;;1.23;0.83;;;;;;;;;;5115269;28;20022;-63
2023/09/04 06:59:13;;;;;;;0.97;0.73;;;;;;;;;;5113892;28;20066;-63
2023/09/04 07:01:40;;;;;;;0.77;0.53;;;;;;;;;;5103633;28;20138;-64
2023/09/04 07:04:07;;;;;;;2.13;0.90;;;;;;;;;;5114230;28;20024;-63
2023/09/04 07:06:33;;;;;;;1.73;1.03;;;;;;;;;;5108547;28;20028;-63
2023/09/04 07:09:00;;;;;;;3.00;1.00;;;;;;;;;;5110230;28;20032;-63
2023/09/04 07:11:26;;;;;;;1.03;0.80;;;;;;;;;;5104759;28;20386;-63
2023/09/04 07:13:53;;;;;;;1.17;0.80;;;;;;;;;;5089532;28;20036;-64
2023/09/04 07:16:20;;;;;;;0.57;0.57;;;;;;;;;;5094676;28;20027;-63
2023/09/04 07:18:46;;;;;;;1.90;1.10;;;;;;;;;;5093446;28;20038;-64
2023/09/04 07:21:13;;;;;;;1.00;0.80;;;;;;;;;;5094386;28;20027;-64
2023/09/04 07:23:40;;;;;;;0.70;0.70;;;;;;;;;;5099197;28;20528;-63
2023/09/04 07:26:07;;;;;;;1.13;0.73;;;;;;;;;;5114385;28;20056;-63
2023/09/04 07:28:33;;;;;;;1.03;0.90;;;;;;;;;;5109576;28;20024;-63
2023/09/04 07:31:28;;;;;;;2.17;1.13;;;;;;;;;;5109473;28;20404;-63
2023/09/04 07:33:55;;;;;;;1.97;1.20;;;;;;;;;;5107471;28;20051;-63
2023/09/04 07:36:21;;;;;;;0.50;0.50;;;;;;;;;;5099162;28;20533;-63
2023/09/04 07:38:48;;;;;;;1.30;0.73;;;;;;;;;;5093864;28;20063;-64
2023/09/04 07:41:15;;;;;;;4.90;1.00;;;;;;;;;;5094165;28;20461;-63
2023/09/04 07:43:41;;;;;;;0.73;0.60;;;;;;;;;;5093749;28;20035;-63
2023/09/04 07:46:08;;;;;;;1.43;0.63;;;;;;;;;;5094001;28;20016;-63
2023/09/04 07:48:35;;;;;;;1.60;1.00;;;;;;;;;;5105104;28;20084;-63
2023/09/04 07:51:03;;;;;;;2.23;1.20;;;;;;;;;;5109110;28;20019;-63
2023/09/04 07:53:29;;;;;;;2.00;0.90;;;;;;;;;;5109117;28;20039;-63
2023/09/04 07:55:56;;;;;;;1.40;0.77;;;;;;;;;;5108811;28;20051;-63
2023/09/04 07:58:23;;;;;;;0.53;0.50;;;;;;;;;;5098950;28;20093;-63
2023/09/04 08:00:50;;;;;;;2.43;1.33;;;;;;;;;;5093628;28;20024;-63
2023/09/04 08:03:17;;;;;;;2.23;0.90;;;;;;;;;;5093664;28;20058;-63
2023/09/04 08:05:44;;;;;;;1.97;1.50;;;;;;;;;;5093613;28;20099;-63
2023/09/04 08:08:11;;;;;;;4.10;1.33;;;;;;;;;;5093557;28;20035;-63
2023/09/04 08:10:43;;;;;;;1.60;1.00;;;;;;;;;;5104726;28;20646;-63
2023/09/04 08:13:19;;;;;;;1.87;1.27;;;;;;;;;;5108259;28;20039;-63
2023/09/04 08:15:46;;;;;;;0.73;0.63;;;;;;;;;;5108661;28;20027;-63
2023/09/04 08:18:13;;;;;;;1.83;1.23;;;;;;;;;;5108124;28;20031;-63
2023/09/04 08:20:40;;;;;;;1.30;1.00;;;;;;;;;;5109764;28;20030;-63
2023/09/04 08:23:07;;;;;;;2.33;1.30;;;;;;;;;;5096138;28;20375;-63
2023/09/04 08:25:34;;;;;;;1.67;0.97;;;;;;;;;;5092751;28;20027;-63
2023/09/04 08:28:01;;;;;;;1.13;0.77;;;;;;;;;;5093262;28;20514;-63
2023/09/04 08:30:27;;;;;;;1.13;0.80;;;;;;;;;;5092159;28;20082;-63
2023/09/04 08:32:54;;;;;;;1.40;0.97;;;;;;;;;;5091969;28;20020;-63
2023/09/04 08:35:21;;;;;;;3.13;1.23;;;;;;;;;;5108209;28;20020;-63
2023/09/04 08:37:48;;;;;;;1.33;0.70;;;;;;;;;;5108445;28;20052;-63
2023/09/04 08:40:15;;;;;;;0.80;0.67;;;;;;;;;;5108417;28;20024;-63
2023/09/04 08:42:45;;;;;;;1.23;0.90;;;;;;;;;;5108796;28;20023;-63
2023/09/04 08:45:12;;;;;;;0.57;0.57;;;;;;;;;;5112417;28;20028;-63
2023/09/04 08:47:40;;;;;;;1.67;1.10;;;;;;;;;;5091448;28;20103;-63
2023/09/04 08:50:07;;;;;;;1.43;1.17;;;;;;;;;;5092717;28;20050;-63
2023/09/04 08:52:37;;;;;;;1.53;1.13;;;;;;;;;;5092509;28;20037;-63
2023/09/04 08:55:05;;;;;;;0.87;0.70;;;;;;;;;;5090771;28;20521;-63
2023/09/04 08:57:35;;;;;;;0.93;0.60;;;;;;;;;;5091311;28;20479;-63
2023/09/04 09:00:03;;;;;;;1.40;0.67;;;;;;;;;;5107878;28;20085;-63
2023/09/04 09:02:30;;;;;;;15.03;1.00;;;;;;;;;;5108110;28;20081;-63
2023/09/04 09:04:57;;;;;;;1.37;1.17;;;;;;;;;;5107485;28;20122;-63
2023/09/04 09:07:27;;;;;;;3.00;0.83;;;;;;;;;;5109370;28;20024;-63
2023/09/04 09:09:53;;;;;;;2.53;1.73;;;;;;;;;;5092286;28;20415;-63
2023/09/04 09:12:20;;;;;;;1.70;1.10;;;;;;;;;;5092484;28;20126;-63
2023/09/04 09:14:47;;;;;;;1.37;1.13;;;;;;;;;;5092575;28;20119;-63
2023/09/04 09:17:14;;;;;;;2.63;1.60;;;;;;;;;;5091813;28;20031;-63
2023/09/04 09:19:42;;;;;;;1.13;0.80;;;;;;;;;;5087475;28;20024;-63
2023/09/04 09:22:12;;;;;;;1.93;1.03;;;;;;;;;;5085841;28;20027;-63
2023/09/04 09:24:55;;;;;;;1.10;0.83;;;;;;;;;;5085950;28;20066;-63
2023/09/04 09:27:23;;;;;;;2.10;1.00;;;;;;;;;;5092618;28;20103;-63
2023/09/04 09:29:50;;;;;;;2.27;1.37;;;;;;;;;;5112736;28;20023;-63
2023/09/04 09:32:17;;;;;;;1.23;0.90;;;;;;;;;;5111472;28;20031;-63
2023/09/04 09:34:51;;;;;;;4.00;1.43;;;;;;;;;;5111159;28;20040;-63
2023/09/04 09:37:18;;;;;;;2.87;1.50;;;;;;;;;;5112582;28;20076;-63
2023/09/04 09:39:44;;;;;;;1.63;1.27;;;;;;;;;;5103350;28;20028;-63
2023/09/04 09:42:11;;;;;;;2.10;1.17;;;;;;;;;;5089317;28;20032;-63
2023/09/04 09:44:38;;;;;;;2.57;1.17;;;;;;;;;;5091225;28;20028;-63
2023/09/04 09:47:08;;;;;;;2.33;1.33;;;;;;;;;;5090971;28;20035;-63
2023/09/04 09:49:39;;;;;;;0.93;0.73;;;;;;;;;;5091645;28;20387;-63
2023/09/04 09:52:09;;;;;;;9.40;1.30;;;;;;;;;;5102897;28;20030;-63
2023/09/04 09:54:37;;;;;;;1.67;1.07;;;;;;;;;;5116335;28;20439;-63
2023/09/04 09:57:13;;;;;;;1.90;1.27;;;;;;;;;;5116575;28;20019;-63
2023/09/04 09:59:43;;;;;;;5.10;1.23;;;;;;;;;;5116313;28;20374;-63
2023/09/04 10:02:10;;;;;;;3.90;1.33;;;;;;;;;;5094690;28;20056;-63
2023/09/04 10:04:38;;;;;;;2.47;1.57;;;;;;;;;;5091031;28;20024;-63
2023/09/04 10:07:05;;;;;;;3.20;1.37;;;;;;;;;;5090600;28;20081;-62
2023/09/04 10:09:36;;;;;;;15.40;1.30;;;;;;;;;;5090815;28;20077;-63
2023/09/04 10:12:13;;;;;;;2.17;1.27;;;;;;;;;;5108196;28;20080;-63
2023/09/04 10:14:41;;;;;;;2.47;1.40;;;;;;;;;;5114754;28;20035;-63
2023/09/04 10:17:12;;;;;;;2.07;1.03;;;;;;;;;;5116126;28;20030;-63
2023/09/04 10:19:41;;;;;;;2.17;1.03;;;;;;;;;;5116233;28;20370;-63
2023/09/04 10:22:09;;;;;;;1.87;1.37;;;;;;;;;;5116079;28;20028;-63
2023/09/04 10:24:54;;;;;;;1.30;1.17;;;;;;;;;;5092022;28;20160;-63
2023/09/04 10:27:23;;;;;;;1.17;0.88;;;;;;;;;;5090609;28;20378;-63
2023/09/04 10:30:06;;;;;;;1.57;0.93;;;;;;;;;;5090390;28;20028;-63
2023/09/04 10:32:34;;;;;;;13.97;1.97;;;;;;;;;;5090193;28;20483;-63
2023/09/04 10:35:02;;;;;;;1.60;1.20;;;;;;;;;;5103086;28;20073;-63
2023/09/04 10:37:30;;;;;;;2.97;1.27;;;;;;;;;;5115820;28;20152;-63
2023/09/04 10:39:58;;;;;;;3.27;1.47;;;;;;;;;;5114402;28;20019;-63
2023/09/04 10:42:27;;;;;;;1.90;1.40;;;;;;;;;;5115901;28;20437;-63
2023/09/04 10:44:56;;;;;;;1.23;0.80;;;;;;;;;;5114942;28;20339;-62
2023/09/04 10:47:23;;;;;;;2.67;1.57;;;;;;;;;;5099433;28;20028;-62
2023/09/04 10:49:50;;;;;;;1.17;0.80;;;;;;;;;;5089943;28;20494;-63
2023/09/04 10:52:16;;;;;;;1.73;1.33;;;;;;;;;;5089943;28;20055;-64
2023/09/04 10:54:44;;;;;;;0.80;0.80;;;;;;;;;;5089039;28;20031;-61
2023/09/04 10:57:15;;;;;;;2.00;1.60;;;;;;;;;;5094722;28;20095;-61
2023/09/04 10:59:57;;;;;;;1.13;0.83;;;;;;;;;;5105988;28;20027;-62
2023/09/04 11:02:27;;;;;;;9.83;1.70;;;;;;;;;;5113647;28;20027;-61
2023/09/04 11:04:54;;;;;;;0.67;0.67;;;;;;;;;;5115219;28;20030;-61
2023/09/04 11:07:21;;;;;;;2.70;1.33;;;;;;;;;;5113885;28;20024;-61
2023/09/04 11:10:03;;;;;;;3.20;1.50;;;;;;;;;;5109471;28;20020;-62
2023/09/04 11:12:33;;;;;;;2.63;1.53;;;;;;;;;;5096437;28;20028;-61
2023/09/04 11:14:59;;;;;;;8.00;1.30;;;;;;;;;;5105215;28;20043;-62
2023/09/04 11:17:31;;;;;;;2.20;1.53;;;;;;;;;;5110585;28;20107;-62
2023/09/04 11:19:58;;;;;;;1.77;1.37;;;;;;;;;;5114375;28;20022;-62
2023/09/04 11:22:25;;;;;;;1.93;1.37;;;;;;;;;;5113607;28;20462;-62
2023/09/04 11:24:56;;;;;;;1.23;1.07;;;;;;;;;;5094357;28;20020;-62
2023/09/04 11:27:27;;;;;;;1.60;1.10;;;;;;;;;;5094394;28;20058;-62
2023/09/04 11:29:54;;;;;;;4.97;2.20;;;;;;;;;;5092315;28;20021;-62
2023/09/04 11:32:21;;;;;;;3.47;1.57;;;;;;;;;;5088754;28;20495;-62
2023/09/04 11:34:49;;;;;;;1.43;1.10;;;;;;;;;;5091211;28;20036;-62
2023/09/04 11:37:16;;;;;;;6.17;1.50;;;;;;;;;;5109234;28;20027;-61
2023/09/04 11:39:53;;;;;;;1.83;1.20;;;;;;;;;;5110672;28;20020;-62
2023/09/04 11:42:21;;;;;;;1.97;1.50;;;;;;;;;;5114477;28;20030;-62
2023/09/04 11:44:49;;;;;;;2.47;1.20;;;;;;;;;;5114085;28;20023;-62
2023/09/04 11:47:19;;;;;;;1.00;0.80;;;;;;;;;;5107508;28;20024;-61
2023/09/04 11:49:47;;;;;;;2.40;1.40;;;;;;;;;;5093754;28;20036;-62
2023/09/04 11:52:18;;;;;;;1.70;1.40;;;;;;;;;;5091340;28;20075;-62
2023/09/04 11:54:45;;;;;;;2.30;1.60;;;;;;;;;;5088541;28;20036;-62
2023/09/04 11:57:12;;;;;;;14.20;2.30;;;;;;;;;;5088545;28;20056;-62
2023/09/04 11:59:41;;;;;;;1.27;0.93;;;;;;;;;;5099948;28;20031;-62
2023/09/04 12:02:08;;;;;;;1.53;1.10;;;;;;;;;;5111018;28;20027;-61
2023/09/04 12:04:35;;;;;;;3.57;1.67;;;;;;;;;;5113783;28;20019;-62
2023/09/04 12:07:03;;;;;;;3.50;2.43;;;;;;;;;;5114080;28;20473;-61
2023/09/04 12:09:30;;;;;;;1.73;1.37;;;;;;;;;;5113914;28;20112;-62
2023/09/04 12:11:57;;;;;;;1.93;1.43;;;;;;;;;;5097689;28;20028;-63
2023/09/04 12:14:24;;;;;;;1.77;1.60;;;;;;;;;;5090881;28;20038;-62
2023/09/04 12:16:52;;;;;;;2.67;1.67;;;;;;;;;;5088343;28;20024;-62
2023/09/04 12:19:23;;;;;;;2.53;1.57;;;;;;;;;;5088384;28;20044;-62
2023/09/04 12:21:50;;;;;;;1.50;1.40;;;;;;;;;;5086896;28;20028;-63
2023/09/04 12:24:21;;;;;;;2.83;1.63;;;;;;;;;;5110338;28;20153;-63
2023/09/04 12:26:48;;;;;;;2.30;1.60;;;;;;;;;;5113378;28;20016;-65
2023/09/04 12:29:15;;;;;;;2.00;1.30;;;;;;;;;;5113557;28;20020;-63
2023/09/04 12:31:42;;;;;;;2.00;1.57;;;;;;;;;;5113800;28;20420;-62
2023/09/04 12:34:09;;;;;;;3.30;1.63;;;;;;;;;;5110873;28;20032;-63
2023/09/04 12:36:36;;;;;;;3.00;1.67;;;;;;;;;;5090121;28;20020;-62
2023/09/04 12:39:04;;;;;;;2.27;1.77;;;;;;;;;;5087660;28;20073;-63
2023/09/04 12:41:31;;;;;;;3.57;1.67;;;;;;;;;;5087959;28;20032;-62
2023/09/04 12:43:58;;;;;;;1.33;1.13;;;;;;;;;;5087867;28;20020;-62
2023/09/04 12:46:24;;;;;;;2.67;1.67;;;;;;;;;;5092852;28;20386;-63
2023/09/04 12:48:51;;;;;;;3.70;2.17;;;;;;;;;;5113243;28;20032;-62
2023/09/04 12:51:18;;;;;;;1.70;1.20;;;;;;;;;;5113201;28;20115;-62
2023/09/04 12:53:45;;;;;;;7.73;2.37;;;;;;;;;;5112930;28;20122;-62
2023/09/04 12:56:12;;;;;;;6.00;2.00;;;;;;;;;;5113102;28;20106;-63
2023/09/04 12:58:38;;;;;;;4.20;2.30;;;;;;;;;;5105891;28;20031;-62
2023/09/04 13:01:06;;;;;;;4.60;1.70;;;;;;;;;;5087629;28;20024;-63
2023/09/04 13:03:33;;;;;;;2.27;1.80;;;;;;;;;;5087493;28;20110;-62
2023/09/04 13:06:00;;;;;;;3.43;1.87;;;;;;;;;;5087417;28;20028;-63
2023/09/04 13:08:26;;;;;;;1.90;1.20;;;;;;;;;;5090671;28;20024;-62
2023/09/04 13:10:53;;;;;;;1.63;1.10;;;;;;;;;;5112993;28;20055;-63
2023/09/04 13:13:20;;;;;;;3.00;1.40;;;;;;;;;;5112870;28;20036;-62
2023/09/04 13:15:46;;;;;;;1.33;1.17;;;;;;;;;;5111181;28;20542;-62
2023/09/04 13:18:13;;;;;;;2.50;1.80;;;;;;;;;;5112040;28;20390;-64
2023/09/04 13:20:40;;;;;;;1.60;1.20;;;;;;;;;;5109607;28;20028;-63
2023/09/04 13:23:07;;;;;;;1.47;1.33;;;;;;;;;;5105056;28;20012;-62
2023/09/04 13:25:33;;;;;;;4.57;2.30;;;;;;;;;;5107212;28;20027;-62
2023/09/04 13:28:00;;;;;;;5.13;2.37;;;;;;;;;;5107749;28;20067;-62
2023/09/04 13:30:26;;;;;;;3.90;1.73;;;;;;;;;;5106555;28;20483;-63
2023/09/04 13:32:53;;;;;;;3.87;1.67;;;;;;;;;;5092310;28;20127;-63
2023/09/04 13:35:20;;;;;;;3.57;2.10;;;;;;;;;;5092110;28;20032;-63
2023/09/04 13:37:46;;;;;;;18.33;2.17;;;;;;;;;;5092176;28;20055;-63
2023/09/04 13:40:14;;;;;;;2.37;1.67;;;;;;;;;;5091781;28;20028;-63
2023/09/04 13:42:40;;;;;;;1.23;1.10;;;;;;;;;;5069341;28;20048;-63
2023/09/04 13:45:07;;;;;;;4.10;2.47;;;;;;;;;;5067175;28;20020;-63
2023/09/04 13:47:34;;;;;;;1.50;1.10;;;;;;;;;;5066910;28;20020;-63
2023/09/04 13:50:00;;;;;;;2.27;1.57;;;;;;;;;;5065484;28;20036;-63
2023/09/04 13:52:27;;;;;;;3.53;1.97;;;;;;;;;;5073844;28;20042;-62
2023/09/04 13:54:55;;;;;;;2.40;1.60;;;;;;;;;;5111924;28;20035;-63
2023/09/04 13:57:23;;;;;;;3.80;1.70;;;;;;;;;;5112443;28;20035;-63
2023/09/04 13:59:50;;;;;;;1.33;1.13;;;;;;;;;;5112592;28;20028;-63
2023/09/04 14:02:16;;;;;;;2.57;1.90;;;;;;;;;;5112330;28;20068;-63
2023/09/04 14:04:43;;;;;;;3.97;1.73;;;;;;;;;;5104206;28;20031;-62
2023/09/04 14:07:10;;;;;;;3.37;1.70;;;;;;;;;;5087091;28;20120;-63
2023/09/04 14:09:37;;;;;;;3.30;2.17;;;;;;;;;;5086429;28;20485;-63
2023/09/04 14:12:04;;;;;;;4.17;2.37;;;;;;;;;;5087072;28;20048;-63
2023/09/04 14:14:31;;;;;;;7.47;1.97;;;;;;;;;;5088648;28;20024;-62
2023/09/04 14:16:58;;;;;;;2.03;1.57;;;;;;;;;;5098680;28;20495;-63
2023/09/04 14:19:24;;;;;;;2.50;1.67;;;;;;;;;;5112239;28;20031;-63
2023/09/04 14:21:53;;;;;;;1.50;1.20;;;;;;;;;;5112306;28;20024;-63
2023/09/04 14:24:20;;;;;;;2.17;1.60;;;;;;;;;;5112461;28;20032;-63
2023/09/04 14:26:47;;;;;;;4.70;2.17;;;;;;;;;;5109506;28;20028;-63
2023/09/04 14:29:14;;;;;;;2.93;2.00;;;;;;;;;;5098252;28;20485;-63
2023/09/04 14:31:41;;;;;;;2.97;2.00;;;;;;;;;;5089105;28;20032;-63
2023/09/04 14:34:07;;;;;;;2.27;1.53;;;;;;;;;;5090218;28;20036;-63
2023/09/04 14:36:34;;;;;;;1.90;1.50;;;;;;;;;;5092133;28;20024;-63
2023/09/04 14:39:01;;;;;;;1.40;1.07;;;;;;;;;;5094991;28;20028;-63
2023/09/04 14:41:35;;;;;;;3.47;1.17;;;;;;;;;;5106404;28;20477;-63
2023/09/04 14:44:02;;;;;;;1.40;1.15;;;;;;;;;;5114281;28;20031;-63
2023/09/04 14:46:30;;;;;;;4.97;1.80;;;;;;;;;;5115517;28;20440;-63